Time;durP1;ratioP1;P1;durP2;ratioP2;P2;SDS_P1;SDS_P2;PMS_P1;PMS_P2;Temp;Humidity;BMP_temperature;BMP_pressure;BME280_temperature;BME280_humidity;BME280_pressure;Samples;Min_cycle;Max_cycle;Signal;HPM_P1;HPM_P2
2022/12/03 00:01:41;;;;;;;7.57;5.03;;;0.10;99.90;;;;;;5037451;28;20232;-81
2022/12/03 00:04:06;;;;;;;7.23;4.67;;;0.00;99.90;;;;;;5054853;28;20173;-82
2022/12/03 00:06:32;;;;;;;10.10;5.40;;;0.00;99.90;;;;;;5037505;28;20233;-81
2022/12/03 00:08:57;;;;;;;8.40;5.00;;;0.00;99.90;;;;;;5036590;28;20184;-82
2022/12/03 00:11:23;;;;;;;8.70;5.50;;;-0.10;99.90;;;;;;5055015;28;20246;-81
2022/12/03 00:13:48;;;;;;;9.73;5.43;;;-0.10;99.90;;;;;;5055240;28;20192;-83
2022/12/03 00:16:14;;;;;;;7.93;5.00;;;-0.10;99.90;;;;;;5037117;28;20201;-81
2022/12/03 00:18:40;;;;;;;8.30;5.13;;;-0.10;99.90;;;;;;5054744;28;20199;-81
2022/12/03 00:21:05;;;;;;;8.70;5.10;;;-0.10;99.90;;;;;;5054841;28;20191;-82
2022/12/03 00:23:31;;;;;;;7.93;4.83;;;0.00;99.90;;;;;;5054845;28;20175;-82
2022/12/03 00:25:56;;;;;;;8.73;5.60;;;-0.10;99.90;;;;;;5037087;28;20189;-82
2022/12/03 00:28:22;;;;;;;8.13;5.07;;;-0.10;99.90;;;;;;5054844;28;20183;-81
2022/12/03 00:30:48;;;;;;;8.03;5.23;;;-0.10;99.90;;;;;;5054666;28;20180;-82
2022/12/03 00:33:13;;;;;;;8.13;5.30;;;-0.10;99.90;;;;;;5036772;28;20180;-83
2022/12/03 00:35:39;;;;;;;8.03;4.83;;;-0.10;99.90;;;;;;5054624;28;20206;-82
2022/12/03 00:38:04;;;;;;;9.40;5.53;;;-0.10;99.90;;;;;;5036587;28;20765;-81
2022/12/03 00:40:30;;;;;;;8.43;5.60;;;-0.10;99.90;;;;;;5036777;28;20263;-81
2022/12/03 00:42:55;;;;;;;10.47;5.77;;;-0.10;99.90;;;;;;5054304;28;20639;-81
2022/12/03 00:45:21;;;;;;;8.33;5.43;;;-0.10;99.90;;;;;;5036619;28;20168;-81
2022/12/03 00:47:46;;;;;;;8.10;5.33;;;-0.10;99.90;;;;;;5089317;22;20250;-82
2022/12/03 00:50:12;;;;;;;8.97;5.60;;;-0.10;99.90;;;;;;5057470;28;20183;-82
2022/12/03 00:52:38;;;;;;;7.97;5.07;;;-0.10;99.90;;;;;;5057160;28;20536;-82
2022/12/03 00:55:03;;;;;;;8.77;5.17;;;-0.20;99.90;;;;;;5075749;28;20180;-83
2022/12/03 00:57:29;;;;;;;9.23;5.07;;;-0.10;99.90;;;;;;5074854;28;20212;-82
2022/12/03 00:59:54;;;;;;;9.37;5.03;;;-0.10;99.90;;;;;;5057431;28;20524;-82
2022/12/03 01:02:20;;;;;;;7.53;4.87;;;-0.10;99.90;;;;;;5056939;28;20590;-82
2022/12/03 01:04:46;;;;;;;8.33;4.93;;;0.00;99.90;;;;;;5075408;28;20177;-82
2022/12/03 01:07:11;;;;;;;8.53;5.23;;;0.00;99.90;;;;;;5056979;28;20221;-82
2022/12/03 01:09:37;;;;;;;9.20;5.53;;;0.00;99.90;;;;;;5056776;28;20186;-83
2022/12/03 01:12:02;;;;;;;8.97;5.53;;;-0.10;99.90;;;;;;5074757;28;20674;-82
2022/12/03 01:14:28;;;;;;;8.50;5.47;;;-0.10;99.90;;;;;;5074342;28;20204;-82
2022/12/03 01:16:53;;;;;;;8.33;5.37;;;-0.10;99.90;;;;;;5074579;28;20275;-82
2022/12/03 01:19:19;;;;;;;9.67;5.80;;;-0.10;99.90;;;;;;5056082;28;20558;-83
2022/12/03 01:21:47;;;;;;;7.83;5.13;;;-0.10;99.90;;;;;;5074375;28;20171;-82
2022/12/03 01:24:13;;;;;;;9.30;5.43;;;-0.10;99.90;;;;;;5056119;28;20639;-82
2022/12/03 01:26:39;;;;;;;10.50;5.90;;;0.00;99.90;;;;;;5074306;28;20229;-82
2022/12/03 01:29:05;;;;;;;9.57;6.10;;;-0.10;99.90;;;;;;5074184;28;20179;-82
2022/12/03 01:34:14;;;;;;;8.27;5.17;;;-0.10;99.90;;;;;;5074351;28;20665;-82
2022/12/03 01:36:40;;;;;;;11.13;5.63;;;-0.10;99.90;;;;;;5056211;28;20175;-82
2022/12/03 01:39:06;;;;;;;10.87;5.90;;;-0.20;99.90;;;;;;5055962;28;20204;-82
2022/12/03 01:41:33;;;;;;;9.80;5.70;;;-0.20;99.90;;;;;;5055797;28;20183;-83
2022/12/03 01:44:00;;;;;;;10.30;5.80;;;-0.20;99.90;;;;;;5055822;28;20176;-82
2022/12/03 01:46:45;;;;;;;10.83;6.23;;;-0.20;99.90;;;;;;5056164;28;20176;-82
2022/12/03 01:49:21;;;;;;;10.73;5.90;;;-0.20;99.90;;;;;;5055600;28;20199;-82
2022/12/03 01:51:48;;;;;;;10.63;5.80;;;-0.20;99.90;;;;;;5073630;28;20245;-82
2022/12/03 01:54:20;;;;;;;8.73;5.80;;;-0.20;99.90;;;;;;5055732;28;20184;-82
2022/12/03 01:56:46;;;;;;;11.00;5.77;;;-0.30;99.90;;;;;;5073698;28;20275;-83
2022/12/03 01:59:17;;;;;;;9.50;5.87;;;-0.20;99.90;;;;;;5073483;28;20207;-83
2022/12/03 02:01:43;;;;;;;9.33;5.47;;;-0.20;99.90;;;;;;5073425;28;20615;-82
2022/12/03 02:04:14;;;;;;;8.57;5.63;;;-0.30;99.90;;;;;;5055404;28;20651;-82
2022/12/03 02:06:41;;;;;;;9.90;6.20;;;-0.30;99.90;;;;;;5073264;28;20179;-82
2022/12/03 02:09:12;;;;;;;8.70;5.63;;;-0.30;99.90;;;;;;5073232;28;20230;-82
2022/12/03 02:11:42;;;;;;;10.53;6.10;;;-0.20;99.90;;;;;;5055620;28;20181;-83
2022/12/03 02:14:17;;;;;;;8.37;5.63;;;-0.20;99.90;;;;;;5073318;28;20183;-82
2022/12/03 02:16:44;;;;;;;8.87;5.50;;;-0.20;99.90;;;;;;5073316;28;20729;-82
2022/12/03 02:19:19;;;;;;;9.33;5.33;;;-0.20;99.90;;;;;;5055312;28;20253;-82
2022/12/03 02:22:00;;;;;;;7.93;4.53;;;-0.20;99.90;;;;;;5073423;28;20172;-83
2022/12/03 02:24:36;;;;;;;9.73;5.50;;;-0.20;99.90;;;;;;5073153;28;20214;-83
2022/12/03 02:27:01;;;;;;;10.53;5.97;;;-0.20;99.90;;;;;;5054906;28;20341;-83
2022/12/03 02:29:27;;;;;;;10.00;5.20;;;-0.20;99.90;;;;;;5073118;28;20266;-83
2022/12/03 02:31:52;;;;;;;9.27;5.77;;;-0.30;99.90;;;;;;5054784;28;20295;-82
2022/12/03 02:34:40;;;;;;;10.33;6.23;;;-0.20;99.90;;;;;;5054857;28;20174;-82
2022/12/03 02:37:09;;;;;;;8.90;5.53;;;-0.20;99.90;;;;;;5072739;28;20298;-80
2022/12/03 02:39:38;;;;;;;10.33;6.00;;;-0.20;99.90;;;;;;5072807;28;20168;-83
2022/12/03 02:44:49;;;;;;;9.77;5.83;;;-0.10;99.90;;;;;;5073080;28;20240;-82
2022/12/03 02:47:14;;;;;;;10.77;6.00;;;-0.20;99.90;;;;;;5054602;28;20211;-83
2022/12/03 02:49:40;;;;;;;10.30;6.03;;;-0.20;99.90;;;;;;5073040;28;20168;-83
2022/12/03 02:52:06;;;;;;;10.70;6.33;;;-0.10;99.90;;;;;;5054732;28;20568;-83
2022/12/03 02:54:32;;;;;;;11.73;5.90;;;-0.10;99.90;;;;;;5054468;28;20187;-83
2022/12/03 02:56:57;;;;;;;9.93;5.90;;;-0.10;99.90;;;;;;5072537;28;20192;-82
2022/12/03 02:59:23;;;;;;;9.53;5.77;;;-0.10;99.90;;;;;;5054824;28;20180;-83
2022/12/03 03:01:49;;;;;;;9.40;5.90;;;-0.10;99.90;;;;;;5054572;28;20233;-83
2022/12/03 03:04:15;;;;;;;10.40;5.90;;;-0.10;99.90;;;;;;5072350;28;20677;-82
2022/12/03 03:06:40;;;;;;;11.57;6.40;;;-0.10;99.90;;;;;;5054558;28;20191;-83
2022/12/03 03:09:06;;;;;;;9.90;6.33;;;-0.10;99.90;;;;;;5072513;28;20176;-83
2022/12/03 03:11:32;;;;;;;12.27;6.80;;;-0.20;99.90;;;;;;5054312;28;20183;-82
2022/12/03 03:13:59;;;;;;;12.60;7.00;;;-0.20;99.90;;;;;;5054435;28;20747;-83
2022/12/03 03:16:26;;;;;;;10.87;6.07;;;-0.20;99.90;;;;;;5054445;28;20179;-83
2022/12/03 03:18:51;;;;;;;11.27;6.57;;;-0.20;99.90;;;;;;5054188;28;20199;-83
2022/12/03 03:21:18;;;;;;;11.63;6.83;;;-0.20;99.90;;;;;;5072469;28;20228;-83
2022/12/03 03:23:43;;;;;;;11.53;6.23;;;-0.10;99.90;;;;;;5054094;28;20668;-83
2022/12/03 03:26:12;;;;;;;11.10;6.30;;;0.00;99.90;;;;;;5054385;28;20211;-83
2022/12/03 03:28:45;;;;;;;12.10;6.63;;;0.00;99.90;;;;;;5054115;28;20206;-83
2022/12/03 03:31:13;;;;;;;11.07;6.50;;;0.00;99.90;;;;;;5071941;28;20257;-83
2022/12/03 03:33:40;;;;;;;10.83;6.87;;;0.00;99.90;;;;;;5053882;28;20275;-83
2022/12/03 03:36:06;;;;;;;11.40;6.73;;;0.00;99.90;;;;;;5072379;28;20185;-83
2022/12/03 03:38:32;;;;;;;12.37;7.10;;;0.10;99.90;;;;;;5071743;28;20219;-83
2022/12/03 03:41:02;;;;;;;13.20;7.07;;;0.10;99.90;;;;;;5053933;28;20550;-83
2022/12/03 03:43:29;;;;;;;12.40;6.97;;;0.10;99.90;;;;;;5055899;28;20242;-83
2022/12/03 03:45:55;;;;;;;11.80;6.97;;;0.10;99.90;;;;;;5057797;28;20180;-83
2022/12/03 03:48:21;;;;;;;11.73;6.53;;;0.10;99.90;;;;;;5057422;28;20222;-83
2022/12/03 03:50:48;;;;;;;12.17;7.97;;;0.10;99.90;;;;;;5057791;28;20180;-83
2022/12/03 03:53:15;;;;;;;10.87;6.67;;;0.10;99.90;;;;;;5057188;28;20207;-83
2022/12/03 03:55:41;;;;;;;12.33;7.17;;;0.10;99.90;;;;;;5075357;28;20267;-83
2022/12/03 03:58:07;;;;;;;11.10;6.90;;;0.10;99.90;;;;;;5057152;28;20299;-83
2022/12/03 04:00:35;;;;;;;12.97;7.50;;;0.10;99.90;;;;;;5075213;28;20172;-83
2022/12/03 04:03:01;;;;;;;13.30;7.77;;;0.10;99.90;;;;;;5057338;28;20717;-83
2022/12/03 04:05:27;;;;;;;12.53;7.00;;;0.10;99.90;;;;;;5057260;28;20230;-83
2022/12/03 04:07:53;;;;;;;14.30;8.57;;;0.10;99.90;;;;;;5057221;28;20223;-83
2022/12/03 04:13:03;;;;;;;16.30;8.40;;;0.00;99.90;;;;;;5074865;28;20178;-83
2022/12/03 04:15:29;;;;;;;13.23;8.00;;;0.00;99.90;;;;;;5056925;28;20680;-83
2022/12/03 04:18:55;;;;;;;15.47;8.67;;;0.10;99.90;;;;;;5056793;28;20252;-83
2022/12/03 04:20:49;;;;;;;14.37;8.60;;;0.10;99.90;;;;;;5057157;28;20244;-83
2022/12/03 04:23:15;;;;;;;15.80;8.37;;;0.10;99.90;;;;;;5056863;28;20638;-83
2022/12/03 04:36:37;;;;;;;15.90;8.73;;;0.20;99.90;;;;;;5074755;28;20184;-83
2022/12/03 04:39:03;;;;;;;18.00;9.67;;;0.20;99.90;;;;;;5074241;28;20205;-83
2022/12/03 04:41:29;;;;;;;14.40;8.73;;;0.20;99.90;;;;;;5056570;28;20268;-83
2022/12/03 04:46:38;;;;;;;18.53;9.70;;;0.10;99.90;;;;;;5074282;28;20176;-83
2022/12/03 04:49:04;;;;;;;19.07;9.87;;;0.10;99.90;;;;;;5056634;28;20173;-83
2022/12/03 04:51:29;;;;;;;16.43;9.43;;;0.10;99.90;;;;;;5074726;28;20176;-83
2022/12/03 04:53:55;;;;;;;18.37;9.97;;;0.10;99.90;;;;;;5055541;28;20191;-83
2022/12/03 04:56:20;;;;;;;19.83;10.97;;;0.00;99.90;;;;;;5056388;28;20181;-83
2022/12/03 04:58:46;;;;;;;19.23;10.87;;;0.10;99.90;;;;;;5056086;28;20300;-83
2022/12/03 05:01:11;;;;;;;22.03;11.30;;;0.20;99.90;;;;;;5056255;28;20176;-84
2022/12/03 05:03:37;;;;;;;20.10;10.47;;;0.20;99.90;;;;;;5055936;28;20217;-83
2022/12/03 05:06:03;;;;;;;19.00;9.93;;;0.10;99.90;;;;;;5073869;28;20189;-84
2022/12/03 05:08:28;;;;;;;17.90;10.23;;;0.20;99.90;;;;;;5055661;28;20196;-83
2022/12/03 05:10:54;;;;;;;18.57;10.40;;;0.10;99.90;;;;;;5056007;28;20212;-83
2022/12/03 05:13:19;;;;;;;19.17;10.60;;;0.20;99.90;;;;;;5055694;28;20185;-83
2022/12/03 05:15:45;;;;;;;20.60;10.17;;;0.20;99.90;;;;;;5073724;28;20231;-83
2022/12/03 05:18:10;;;;;;;19.73;10.37;;;0.10;99.90;;;;;;5055576;28;20212;-83
2022/12/03 05:20:42;;;;;;;21.47;10.87;;;0.10;99.90;;;;;;5055645;28;20184;-83
2022/12/03 05:23:12;;;;;;;19.47;10.63;;;-0.10;99.90;;;;;;5055367;28;20191;-83
2022/12/03 05:25:38;;;;;;;20.50;10.07;;;0.00;99.90;;;;;;5073264;28;20176;-83
2022/12/03 05:28:04;;;;;;;20.27;10.67;;;0.00;99.90;;;;;;5073369;28;20204;-83
2022/12/03 05:30:30;;;;;;;21.47;10.77;;;0.00;99.90;;;;;;5055452;28;20205;-83
2022/12/03 05:32:55;;;;;;;21.40;11.50;;;-0.20;99.90;;;;;;5055465;28;20183;-83
2022/12/03 05:35:21;;;;;;;18.67;10.57;;;-0.20;99.90;;;;;;5055433;28;20221;-83
2022/12/03 05:37:46;;;;;;;20.13;10.73;;;-0.10;99.90;;;;;;5055298;28;20212;-83
2022/12/03 05:40:12;;;;;;;21.87;10.87;;;0.00;99.90;;;;;;5055332;28;20619;-84
2022/12/03 05:42:53;;;;;;;22.17;10.83;;;0.00;99.90;;;;;;5055157;28;20183;-83
2022/12/03 05:45:24;;;;;;;20.63;11.30;;;0.10;99.90;;;;;;5055117;28;20204;-83
2022/12/03 05:47:51;;;;;;;21.60;11.03;;;0.10;99.90;;;;;;5072838;28;20298;-84
2022/12/03 05:50:17;;;;;;;20.30;11.10;;;0.10;99.90;;;;;;5055047;28;20207;-83
2022/12/03 05:52:43;;;;;;;20.87;11.00;;;0.10;99.90;;;;;;5054862;28;20203;-83
2022/12/03 05:55:10;;;;;;;20.03;11.13;;;0.20;99.90;;;;;;5055148;28;20550;-83
2022/12/03 05:57:36;;;;;;;20.57;11.13;;;0.20;99.90;;;;;;5054803;28;20274;-83
2022/12/03 06:00:04;;;;;;;17.77;9.93;;;0.20;99.90;;;;;;5072701;28;20186;-83
2022/12/03 06:02:30;;;;;;;18.93;10.47;;;0.30;99.90;;;;;;5072888;28;20240;-83
2022/12/03 06:04:56;;;;;;;20.67;10.80;;;0.20;99.90;;;;;;5072490;28;20245;-83
2022/12/03 06:07:22;;;;;;;22.23;11.47;;;0.20;99.90;;;;;;5054465;28;20600;-82
2022/12/03 06:09:47;;;;;;;22.20;10.83;;;0.20;99.90;;;;;;5055101;28;20262;-81
2022/12/03 06:12:13;;;;;;;17.70;10.40;;;0.20;99.90;;;;;;5072652;28;20169;-77
2022/12/03 06:14:38;;;;;;;21.70;10.80;;;0.20;99.90;;;;;;5054963;28;20207;-82
2022/12/03 06:17:04;;;;;;;18.97;10.13;;;0.20;99.90;;;;;;5054816;28;20188;-81
2022/12/03 06:19:30;;;;;;;19.77;11.30;;;0.20;99.90;;;;;;5072589;28;20211;-81
2022/12/03 06:21:55;;;;;;;18.20;10.53;;;0.20;99.90;;;;;;5054628;28;20212;-81
2022/12/03 06:24:21;;;;;;;18.03;10.30;;;0.20;99.90;;;;;;5072274;28;20173;-81
2022/12/03 06:26:46;;;;;;;22.07;11.50;;;0.20;99.90;;;;;;5054400;28;20188;-82
2022/12/03 06:29:12;;;;;;;21.30;10.77;;;0.10;99.90;;;;;;5054448;28;20199;-80
2022/12/03 06:31:37;;;;;;;19.53;10.50;;;0.10;99.90;;;;;;5054845;28;20184;-80
2022/12/03 06:34:03;;;;;;;19.43;10.83;;;0.10;99.90;;;;;;5054302;28;20237;-83
2022/12/03 06:36:28;;;;;;;23.00;12.13;;;0.20;99.90;;;;;;5054157;28;20186;-81
2022/12/03 06:38:54;;;;;;;20.37;10.43;;;0.10;99.90;;;;;;5072099;28;20200;-80
2022/12/03 06:41:20;;;;;;;20.47;10.50;;;0.00;99.90;;;;;;5054067;28;20550;-82
2022/12/03 06:43:45;;;;;;;21.90;11.87;;;0.00;99.90;;;;;;5071077;28;20184;-82
2022/12/03 06:46:11;;;;;;;22.00;11.50;;;0.00;99.90;;;;;;5052954;28;20175;-81
2022/12/03 06:48:36;;;;;;;19.53;10.60;;;0.00;99.90;;;;;;5093425;22;20615;-81
2022/12/03 06:51:02;;;;;;;22.37;11.77;;;0.00;99.90;;;;;;5034310;28;20177;-83
2022/12/03 06:53:27;;;;;;;21.20;10.83;;;0.10;99.90;;;;;;5032618;28;20200;-80
2022/12/03 06:55:53;;;;;;;24.73;11.50;;;0.10;99.90;;;;;;5032277;28;20247;-80
2022/12/03 06:58:18;;;;;;;23.23;11.73;;;0.20;99.90;;;;;;5033197;28;20206;-80
2022/12/03 07:00:44;;;;;;;20.17;10.80;;;0.20;99.90;;;;;;5032063;28;20652;-81
2022/12/03 07:03:09;;;;;;;21.33;11.17;;;0.10;99.90;;;;;;5033656;28;20173;-81
2022/12/03 07:05:36;;;;;;;23.13;11.60;;;0.10;99.90;;;;;;5032959;28;20315;-82
2022/12/03 07:08:01;;;;;;;21.23;11.17;;;0.10;99.90;;;;;;5031788;28;20196;-82
2022/12/03 07:10:27;;;;;;;24.60;11.57;;;0.10;99.90;;;;;;5033398;28;20189;-81
2022/12/03 07:12:52;;;;;;;21.50;10.50;;;0.10;99.90;;;;;;5033784;28;20690;-82
2022/12/03 07:15:18;;;;;;;21.50;11.13;;;0.10;99.90;;;;;;5033480;28;20255;-80
2022/12/03 07:17:43;;;;;;;20.60;11.27;;;0.20;99.90;;;;;;5034792;28;20229;-79
2022/12/03 07:20:10;;;;;;;22.93;11.73;;;0.20;99.90;;;;;;5036370;28;20182;-80
2022/12/03 07:22:35;;;;;;;23.53;12.17;;;0.20;99.90;;;;;;5037468;28;20181;-80
2022/12/03 07:25:01;;;;;;;22.70;11.50;;;0.20;99.90;;;;;;5036799;28;20236;-81
2022/12/03 07:27:26;;;;;;;20.40;10.87;;;0.20;99.90;;;;;;5036094;28;20228;-82
2022/12/03 07:29:52;;;;;;;21.20;11.07;;;0.20;99.90;;;;;;5038130;28;20641;-81
2022/12/03 07:32:17;;;;;;;20.83;11.47;;;0.20;99.90;;;;;;5038011;28;20174;-82
2022/12/03 07:34:43;;;;;;;22.70;11.80;;;0.20;99.90;;;;;;5036426;28;20211;-83
2022/12/03 07:37:08;;;;;;;24.30;13.33;;;0.30;99.90;;;;;;5034940;28;20201;-82
2022/12/03 07:39:34;;;;;;;52.80;26.30;;;0.20;99.90;;;;;;5034546;28;20244;-82
2022/12/03 07:42:00;;;;;;;21.70;12.30;;;0.20;99.90;;;;;;5035047;28;20177;-82
2022/12/03 07:44:26;;;;;;;23.40;12.40;;;0.20;99.90;;;;;;5035702;28;20174;-82
2022/12/03 07:46:51;;;;;;;22.97;14.37;;;0.10;99.90;;;;;;5034612;28;20239;-82
2022/12/03 07:49:17;;;;;;;20.60;11.83;;;0.10;99.90;;;;;;5035705;28;20198;-80
2022/12/03 07:51:48;;;;;;;22.00;11.67;;;0.10;99.90;;;;;;5036145;28;20260;-83
2022/12/03 07:54:13;;;;;;;21.43;11.33;;;0.00;99.90;;;;;;5035048;28;20185;-82
2022/12/03 07:56:39;;;;;;;21.93;10.80;;;0.10;99.90;;;;;;5034737;28;20191;-83
2022/12/03 07:59:04;;;;;;;20.53;10.27;;;0.20;99.90;;;;;;5034295;28;20300;-82
2022/12/03 08:01:30;;;;;;;21.37;11.43;;;0.20;99.90;;;;;;5034676;28;20174;-81
2022/12/03 08:03:55;;;;;;;22.23;11.63;;;0.30;99.90;;;;;;5035223;28;20182;-84
2022/12/03 08:06:21;;;;;;;30.43;17.97;;;0.20;99.90;;;;;;5035402;28;20170;-83
2022/12/03 08:08:46;;;;;;;41.30;23.07;;;0.30;99.90;;;;;;5033584;28;20220;-82
2022/12/03 08:11:13;;;;;;;19.90;11.77;;;0.30;99.90;;;;;;5033842;28;20171;-81
2022/12/03 08:13:39;;;;;;;21.77;12.13;;;0.30;99.90;;;;;;5033747;28;20559;-82
2022/12/03 08:16:16;;;;;;;19.23;10.77;;;0.40;99.90;;;;;;5035104;28;20178;-82
2022/12/03 08:18:41;;;;;;;27.97;17.00;;;0.50;99.90;;;;;;5033574;28;20216;-81
2022/12/03 08:21:12;;;;;;;17.33;10.33;;;0.50;99.90;;;;;;5033576;28;20349;-81
2022/12/03 08:23:39;;;;;;;22.73;11.57;;;0.50;99.90;;;;;;5034677;28;20181;-81
2022/12/03 08:26:23;;;;;;;21.53;10.33;;;0.50;99.90;;;;;;5033437;28;20196;-81
2022/12/03 08:28:49;;;;;;;19.47;10.17;;;0.50;99.90;;;;;;5034209;28;20209;-81
2022/12/03 08:31:22;;;;;;;21.07;10.33;;;0.50;99.90;;;;;;5036795;28;20664;-82
2022/12/03 08:33:54;;;;;;;20.57;11.53;;;0.60;99.90;;;;;;5037415;28;20182;-80
2022/12/03 08:36:25;;;;;;;19.07;10.67;;;0.60;99.90;;;;;;5034636;28;20202;-83
2022/12/03 08:39:26;;;;;;;20.97;10.27;;;0.60;99.90;;;;;;5033236;28;20337;-83
2022/12/03 08:44:40;;;;;;;20.33;10.90;;;0.60;99.90;;;;;;5032395;28;20197;-82
2022/12/03 08:47:08;;;;;;;22.40;11.07;;;0.60;99.90;;;;;;5033155;28;20182;-83
2022/12/03 08:49:35;;;;;;;21.23;11.07;;;0.60;99.90;;;;;;5033172;28;20209;-84
2022/12/03 08:52:19;;;;;;;18.40;10.23;;;0.60;99.90;;;;;;5033683;28;20175;-82
2022/12/03 08:54:51;;;;;;;18.70;10.30;;;0.60;99.90;;;;;;5034906;28;20158;-84
2022/12/03 08:57:27;;;;;;;19.63;10.27;;;0.70;99.90;;;;;;5034758;28;20240;-85
2022/12/03 09:00:02;;;;;;;19.17;9.83;;;0.70;99.90;;;;;;5034286;28;20285;-81
2022/12/03 09:02:33;;;;;;;21.03;11.77;;;0.70;99.90;;;;;;5033410;28;20174;-82
2022/12/03 09:05:17;;;;;;;16.43;10.13;;;0.70;99.90;;;;;;5034191;28;20661;-81
2022/12/03 09:07:43;;;;;;;20.17;10.00;;;0.80;99.90;;;;;;5034736;28;20198;-82
2022/12/03 09:10:09;;;;;;;21.23;11.03;;;0.80;99.90;;;;;;5034315;28;20176;-81
2022/12/03 09:12:34;;;;;;;21.10;10.67;;;0.80;99.90;;;;;;5034264;28;20510;-84
2022/12/03 09:15:00;;;;;;;20.57;10.90;;;0.80;99.90;;;;;;5034217;28;20174;-85
2022/12/03 09:17:26;;;;;;;20.50;11.57;;;0.90;99.90;;;;;;5032726;28;20206;-84
2022/12/03 09:19:51;;;;;;;19.73;10.67;;;0.90;99.90;;;;;;5034522;28;20174;-85
2022/12/03 09:22:17;;;;;;;18.93;10.70;;;0.90;99.90;;;;;;5032924;28;20167;-84
2022/12/03 09:24:43;;;;;;;20.23;11.37;;;0.90;99.90;;;;;;5032831;28;20170;-83
2022/12/03 09:27:08;;;;;;;18.30;10.57;;;0.80;99.90;;;;;;5032814;28;20198;-84
2022/12/03 09:29:34;;;;;;;18.23;10.47;;;0.80;99.90;;;;;;5032901;28;20174;-84
2022/12/03 09:31:59;;;;;;;18.37;10.27;;;0.80;99.90;;;;;;5032873;28;20274;-85
2022/12/03 09:34:25;;;;;;;20.30;10.53;;;0.80;99.90;;;;;;5033164;28;20556;-84
2022/12/03 09:36:50;;;;;;;17.10;9.23;;;0.80;99.90;;;;;;5033270;28;20258;-86
2022/12/03 09:39:16;;;;;;;19.00;10.90;;;0.70;99.90;;;;;;5033135;28;20205;-84
2022/12/03 09:41:42;;;;;;;19.17;11.00;;;0.80;99.90;;;;;;5033039;28;20173;-85
2022/12/03 09:44:09;;;;;;;20.60;10.70;;;0.90;99.90;;;;;;5033369;28;20174;-84
2022/12/03 09:46:36;;;;;;;21.10;11.30;;;0.90;99.90;;;;;;5032838;28;20182;-85
2022/12/03 09:49:03;;;;;;;19.80;10.70;;;0.90;99.90;;;;;;5031929;28;20680;-85
2022/12/03 09:51:36;;;;;;;18.87;10.67;;;0.90;99.90;;;;;;5033617;28;20178;-85
2022/12/03 09:54:04;;;;;;;21.53;13.80;;;0.90;99.90;;;;;;5033537;28;20640;-85
2022/12/03 09:56:30;;;;;;;20.53;11.23;;;0.90;99.90;;;;;;5032148;28;20264;-84
2022/12/03 09:58:56;;;;;;;22.87;12.40;;;0.90;99.90;;;;;;5031673;28;20250;-87
2022/12/03 10:01:22;;;;;;;19.53;10.70;;;0.90;99.90;;;;;;5031364;28;20656;-87
2022/12/03 10:03:51;;;;;;;19.57;10.90;;;0.80;99.90;;;;;;5032693;28;20584;-86
2022/12/03 10:06:20;;;;;;;21.90;11.90;;;0.80;99.90;;;;;;5031749;28;20185;-86
2022/12/03 10:08:48;;;;;;;22.60;11.00;;;0.80;99.90;;;;;;5032592;28;20208;-87
2022/12/03 10:11:16;;;;;;;20.33;10.73;;;0.90;99.90;;;;;;5031332;28;20182;-87
2022/12/03 10:13:42;;;;;;;18.10;10.43;;;0.90;99.90;;;;;;5032538;28;20190;-86
2022/12/03 10:16:10;;;;;;;20.03;10.37;;;0.90;99.90;;;;;;5030335;28;20272;-86
2022/12/03 10:18:40;;;;;;;18.97;10.07;;;0.90;99.90;;;;;;5020340;28;20301;-85
2022/12/03 10:21:17;;;;;;;20.80;11.03;;;0.90;99.90;;;;;;5032814;28;20275;-88
2022/12/03 10:23:42;;;;;;;21.47;10.37;;;0.90;99.90;;;;;;5031291;28;20208;-86
2022/12/03 10:26:08;;;;;;;17.50;9.77;;;1.00;99.90;;;;;;5031714;28;20256;-82
2022/12/03 10:28:36;;;;;;;17.83;10.20;;;1.10;99.90;;;;;;5031550;28;20303;-87
2022/12/03 10:31:05;;;;;;;26.50;19.13;;;1.20;99.90;;;;;;5030974;28;20212;-83
2022/12/03 10:33:40;;;;;;;18.77;11.43;;;1.20;99.90;;;;;;5032441;28;20205;-85
2022/12/03 10:36:18;;;;;;;18.37;10.60;;;1.30;99.90;;;;;;5034143;28;20212;-85
2022/12/03 10:38:44;;;;;;;18.53;9.67;;;1.40;99.90;;;;;;5034411;28;20205;-84
2022/12/03 10:41:27;;;;;;;18.93;10.93;;;1.40;99.90;;;;;;5032774;28;20181;-84
2022/12/03 10:43:52;;;;;;;17.67;10.47;;;1.40;99.90;;;;;;5034095;28;20197;-85
2022/12/03 10:46:21;;;;;;;22.33;14.23;;;1.30;99.90;;;;;;5032567;28;20561;-85
2022/12/03 10:49:24;;;;;;;18.50;10.37;;;1.20;99.90;;;;;;5031825;28;20286;-84
2022/12/03 10:51:49;;;;;;;18.87;10.33;;;1.20;99.90;;;;;;5031973;28;20174;-84
2022/12/03 10:54:22;;;;;;;21.23;11.13;;;1.20;99.90;;;;;;5032115;28;20324;-84
2022/12/03 10:56:50;;;;;;;21.20;10.37;;;1.30;99.90;;;;;;5032387;28;20229;-84
2022/12/03 10:59:19;;;;;;;19.03;10.33;;;1.30;99.90;;;;;;5032985;28;20212;-84
2022/12/03 11:01:46;;;;;;;17.67;10.57;;;1.30;99.90;;;;;;5032970;28;20182;-85
2022/12/03 11:04:19;;;;;;;19.53;10.50;;;1.30;99.90;;;;;;5033419;28;20675;-83
2022/12/03 11:06:45;;;;;;;17.40;9.93;;;1.40;99.90;;;;;;5033327;28;20564;-84
2022/12/03 11:09:21;;;;;;;21.43;10.00;;;1.40;99.90;;;;;;5031870;28;20206;-84
2022/12/03 11:11:47;;;;;;;17.50;10.13;;;1.50;99.90;;;;;;5032121;28;20214;-85
2022/12/03 11:14:12;;;;;;;18.17;10.10;;;1.50;99.90;;;;;;5031879;28;20204;-84
2022/12/03 11:16:38;;;;;;;18.20;11.23;;;1.50;99.90;;;;;;5031796;28;20581;-84
2022/12/03 11:19:42;;;;;;;19.67;10.87;;;1.50;99.90;;;;;;5031955;28;20202;-84
2022/12/03 11:22:11;;;;;;;21.40;10.50;;;1.50;99.90;;;;;;5030557;28;20229;-84
2022/12/03 11:24:38;;;;;;;20.20;11.40;;;1.50;99.90;;;;;;5013881;28;20271;-84
2022/12/03 11:27:05;;;;;;;17.90;10.07;;;1.50;99.90;;;;;;5023100;28;20588;-84
2022/12/03 11:30:01;;;;;;;18.73;10.67;;;1.40;99.90;;;;;;5033187;28;20252;-84
2022/12/03 11:32:41;;;;;;;24.43;15.33;;;1.40;99.90;;;;;;5031976;28;20190;-84
2022/12/03 11:35:27;;;;;;;28.00;17.23;;;1.20;99.90;;;;;;5032787;28;20182;-84
2022/12/03 11:37:53;;;;;;;18.53;10.30;;;1.20;99.90;;;;;;5033439;28;20610;-83
2022/12/03 11:40:18;;;;;;;20.13;10.33;;;1.30;99.90;;;;;;5032727;28;20174;-84
2022/12/03 11:42:46;;;;;;;16.10;9.67;;;1.30;99.90;;;;;;5031975;28;20591;-82
2022/12/03 11:45:36;;;;;;;20.53;11.50;;;1.30;99.90;;;;;;5034137;28;20645;-84
2022/12/03 11:48:10;;;;;;;19.17;12.13;;;1.30;99.90;;;;;;5032819;28;20218;-85
2022/12/03 11:50:37;;;;;;;17.20;10.40;;;1.30;99.90;;;;;;5033887;28;20186;-85
2022/12/03 11:53:17;;;;;;;19.80;10.83;;;1.30;99.90;;;;;;5032282;28;20187;-85
2022/12/03 11:55:52;;;;;;;22.47;13.67;;;1.30;99.90;;;;;;5033515;28;20186;-85
2022/12/03 11:58:25;;;;;;;21.37;11.50;;;1.30;99.90;;;;;;5032369;28;20239;-84
2022/12/03 12:00:57;;;;;;;21.80;11.10;;;1.30;99.90;;;;;;5034544;28;20191;-83
2022/12/03 12:03:22;;;;;;;19.93;10.53;;;1.30;99.90;;;;;;5034316;28;20197;-83
2022/12/03 12:05:59;;;;;;;20.83;11.30;;;1.40;99.90;;;;;;5037487;28;20186;-83
2022/12/03 12:08:24;;;;;;;19.37;10.90;;;1.40;99.90;;;;;;5038689;28;20288;-83
2022/12/03 12:10:50;;;;;;;21.47;10.93;;;1.50;99.90;;;;;;5039117;28;20256;-83
2022/12/03 12:13:31;;;;;;;17.80;10.50;;;1.50;99.90;;;;;;5037946;28;20638;-83
2022/12/03 12:15:58;;;;;;;21.93;11.50;;;1.50;99.90;;;;;;5039577;28;20218;-83
2022/12/03 12:18:47;;;;;;;19.67;10.37;;;1.40;99.90;;;;;;5037817;28;20562;-83
2022/12/03 12:21:39;;;;;;;18.87;10.47;;;1.50;99.90;;;;;;5039287;28;20155;-83
2022/12/03 12:24:27;;;;;;;19.90;10.37;;;1.40;99.90;;;;;;5037595;28;20199;-83
2022/12/03 12:26:53;;;;;;;22.40;10.77;;;1.40;99.90;;;;;;5039241;28;20171;-82
2022/12/03 12:29:19;;;;;;;24.50;11.80;;;1.30;99.90;;;;;;5037158;28;20198;-83
2022/12/03 12:31:44;;;;;;;20.87;11.13;;;1.30;99.90;;;;;;5037334;28;20171;-82
2022/12/03 12:34:14;;;;;;;23.10;11.67;;;1.30;99.90;;;;;;5037353;28;20637;-83
2022/12/03 12:36:40;;;;;;;21.40;10.90;;;1.40;99.90;;;;;;5038499;28;20181;-83
2022/12/03 12:39:13;;;;;;;22.10;11.47;;;1.40;99.90;;;;;;5037557;28;20210;-83
2022/12/03 12:41:47;;;;;;;22.50;11.90;;;1.40;99.90;;;;;;5037166;28;20661;-82
2022/12/03 12:44:13;;;;;;;28.83;17.67;;;1.40;99.90;;;;;;5036956;28;20162;-83
2022/12/03 12:46:41;;;;;;;23.80;12.43;;;1.30;99.90;;;;;;5038286;28;20176;-83
2022/12/03 12:49:10;;;;;;;23.60;12.50;;;1.30;99.90;;;;;;5053698;23;20293;-83
2022/12/03 12:51:39;;;;;;;21.67;12.03;;;1.30;99.90;;;;;;5036674;28;20171;-82
2022/12/03 12:54:10;;;;;;;21.33;11.13;;;1.30;99.90;;;;;;5043681;28;20171;-83
2022/12/03 12:56:37;;;;;;;25.00;12.80;;;1.30;99.90;;;;;;5043701;28;20181;-83
2022/12/03 12:59:19;;;;;;;37.13;26.70;;;1.20;99.90;;;;;;5039291;28;20236;-83
2022/12/03 13:01:48;;;;;;;21.97;12.40;;;1.30;99.90;;;;;;5024171;28;20179;-83
2022/12/03 13:04:20;;;;;;;22.73;12.67;;;1.20;99.90;;;;;;5024075;28;20195;-83
2022/12/03 13:06:48;;;;;;;23.30;11.70;;;1.20;99.90;;;;;;5038089;28;20167;-83
2022/12/03 13:09:24;;;;;;;21.40;11.93;;;1.20;99.90;;;;;;5041241;28;20213;-83
2022/12/03 13:11:58;;;;;;;21.97;11.33;;;1.20;99.90;;;;;;5040384;28;20550;-83